Time;durP1;ratioP1;P1;durP2;ratioP2;P2;SDS_P1;SDS_P2;PMS_P1;PMS_P2;Temp;Humidity;BMP_temperature;BMP_pressure;BME280_temperature;BME280_humidity;BME280_pressure;Samples;Min_cycle;Max_cycle;Signal;HPM_P1;HPM_P2
2023/04/06 00:01:46;;;;;;;4.78;2.35;;;;;;;;;;5010224;28;20579;-90
2023/04/06 00:04:13;;;;;;;5.75;2.15;;;;;;;;;;5012751;28;20014;-93
2023/04/06 00:06:39;;;;;;;9.27;2.50;;;;;;;;;;5013219;28;20026;-90
2023/04/06 00:09:05;;;;;;;6.45;2.30;;;;;;;;;;5014063;28;20029;-91
2023/04/06 00:11:31;;;;;;;4.97;1.98;;;;;;;;;;5015865;28;20029;-91
2023/04/06 00:13:59;;;;;;;8.73;2.20;;;;;;;;;;5016353;28;20120;-91
2023/04/06 00:16:25;;;;;;;6.53;2.03;;;;;;;;;;5013799;28;20084;-93
2023/04/06 00:18:52;;;;;;;7.65;2.05;;;;;;;;;;5015190;28;20052;-90
2023/04/06 00:21:19;;;;;;;3.90;2.30;;;;;;;;;;5018827;28;20026;-91
2023/04/06 00:23:46;;;;;;;6.50;2.05;;;;;;;;;;5016636;28;20021;-91
2023/04/06 00:26:12;;;;;;;8.93;2.30;;;;;;;;;;5012621;28;20550;-90
2023/04/06 00:28:39;;;;;;;4.22;1.92;;;;;;;;;;5014482;28;20025;-90
2023/04/06 00:31:08;;;;;;;4.72;2.50;;;;;;;;;;5013497;28;20403;-89
2023/04/06 00:33:34;;;;;;;9.90;2.85;;;;;;;;;;5012146;28;20518;-91
2023/04/06 00:36:00;;;;;;;11.55;2.15;;;;;;;;;;5010188;28;20053;-89
2023/04/06 00:38:26;;;;;;;8.98;2.03;;;;;;;;;;5012287;28;20071;-88
2023/04/06 00:40:52;;;;;;;6.82;2.00;;;;;;;;;;5011547;28;20041;-90
2023/04/06 00:43:19;;;;;;;2.70;1.60;;;;;;;;;;5013748;28;20053;-90
2023/04/06 00:45:45;;;;;;;9.50;1.80;;;;;;;;;;5010978;28;20025;-96
2023/04/06 00:48:11;;;;;;;6.57;1.95;;;;;;;;;;5013781;28;20024;-89
2023/04/06 00:50:37;;;;;;;3.95;1.70;;;;;;;;;;5012669;28;20036;-92
2023/04/06 00:53:04;;;;;;;3.85;1.80;;;;;;;;;;5009630;28;20106;-88
2023/04/06 00:55:35;;;;;;;3.72;2.20;;;;;;;;;;5011138;28;20337;-89
2023/04/06 00:58:02;;;;;;;5.10;1.58;;;;;;;;;;5032442;28;20021;-88
2023/04/06 01:00:28;;;;;;;5.82;2.13;;;;;;;;;;5014243;28;20044;-88
2023/04/06 01:02:58;;;;;;;6.32;2.38;;;;;;;;;;5010223;28;20040;-91
2023/04/06 01:05:24;;;;;;;3.60;2.08;;;;;;;;;;5013291;28;20060;-88
2023/04/06 01:07:50;;;;;;;3.47;2.55;;;;;;;;;;5010007;28;20204;-91
2023/04/06 01:10:24;;;;;;;5.93;2.15;;;;;;;;;;5012296;28;20017;-89
2023/04/06 01:12:50;;;;;;;5.57;2.13;;;;;;;;;;5033808;28;20490;-89
2023/04/06 01:15:16;;;;;;;4.18;1.80;;;;;;;;;;5012711;28;20030;-89
2023/04/06 01:17:43;;;;;;;6.95;1.90;;;;;;;;;;5012528;28;20029;-89
2023/04/06 01:20:09;;;;;;;4.15;2.30;;;;;;;;;;5012928;28;20155;-88
2023/04/06 01:22:35;;;;;;;5.32;1.88;;;;;;;;;;5009587;28;20561;-92
2023/04/06 01:25:02;;;;;;;3.35;1.80;;;;;;;;;;5012278;28;20068;-89
2023/04/06 01:27:29;;;;;;;3.45;1.85;;;;;;;;;;5011655;28;20112;-92
2023/04/06 01:30:08;;;;;;;4.45;2.00;;;;;;;;;;5009187;28;20037;-90
2023/04/06 01:32:35;;;;;;;4.80;1.70;;;;;;;;;;5014898;28;20112;-93
2023/04/06 01:35:02;;;;;;;6.88;2.22;;;;;;;;;;5013741;28;20032;-92
2023/04/06 01:37:31;;;;;;;4.63;2.22;;;;;;;;;;5011904;28;20029;-88
2023/04/06 01:39:58;;;;;;;4.13;2.13;;;;;;;;;;5009735;28;20116;-90
2023/04/06 01:42:24;;;;;;;6.28;2.28;;;;;;;;;;5010578;28;20061;-90
2023/04/06 01:44:53;;;;;;;7.10;2.28;;;;;;;;;;5012614;28;20038;-90
2023/04/06 01:47:20;;;;;;;5.05;2.15;;;;;;;;;;5034542;28;20021;-88
2023/04/06 01:49:46;;;;;;;8.10;2.47;;;;;;;;;;5009818;28;20025;-87
2023/04/06 01:52:12;;;;;;;6.47;2.40;;;;;;;;;;5011594;28;20079;-88
2023/04/06 01:54:38;;;;;;;10.45;3.38;;;;;;;;;;5007345;28;20278;-89
2023/04/06 01:57:07;;;;;;;5.10;2.35;;;;;;;;;;5009574;28;20039;-89
2023/04/06 01:59:34;;;;;;;5.47;2.50;;;;;;;;;;5012623;28;20040;-88
2023/04/06 02:02:00;;;;;;;8.80;2.63;;;;;;;;;;5011526;28;20037;-89
2023/04/06 02:04:26;;;;;;;6.65;2.25;;;;;;;;;;5013387;28;20017;-88
2023/04/06 02:06:52;;;;;;;3.53;2.38;;;;;;;;;;5010303;28;20033;-89
2023/04/06 02:09:19;;;;;;;7.32;2.85;;;;;;;;;;5011091;28;20559;-90
2023/04/06 02:11:45;;;;;;;6.93;2.15;;;;;;;;;;5011791;28;20030;-90
2023/04/06 02:14:11;;;;;;;5.10;2.22;;;;;;;;;;5014069;28;20149;-90
2023/04/06 02:16:38;;;;;;;8.13;2.40;;;;;;;;;;5012837;28;20509;-91
2023/04/06 02:19:05;;;;;;;6.18;2.85;;;;;;;;;;5010435;28;20562;-91
2023/04/06 02:21:32;;;;;;;9.98;3.22;;;;;;;;;;5012321;28;20416;-90
2023/04/06 02:23:58;;;;;;;4.03;2.13;;;;;;;;;;5010729;28;20025;-90
2023/04/06 02:26:24;;;;;;;4.82;2.42;;;;;;;;;;5008121;28;20026;-91
2023/04/06 02:28:50;;;;;;;5.68;2.13;;;;;;;;;;5009590;28;20484;-90
2023/04/06 02:31:17;;;;;;;5.85;2.00;;;;;;;;;;5008118;28;20025;-91
2023/04/06 02:33:43;;;;;;;9.82;2.63;;;;;;;;;;5009177;28;20112;-91
2023/04/06 02:36:09;;;;;;;6.35;2.75;;;;;;;;;;5011576;28;20484;-90
2023/04/06 02:38:35;;;;;;;7.10;2.67;;;;;;;;;;5013781;28;20120;-91
2023/04/06 02:41:01;;;;;;;6.35;2.50;;;;;;;;;;5013178;28;20500;-90
2023/04/06 02:43:28;;;;;;;11.02;2.85;;;;;;;;;;5018169;28;20042;-93
2023/04/06 02:45:54;;;;;;;6.75;2.80;;;;;;;;;;5010582;28;20311;-90
2023/04/06 02:48:20;;;;;;;4.47;2.28;;;;;;;;;;5012715;28;20053;-94
2023/04/06 02:50:47;;;;;;;7.43;2.20;;;;;;;;;;5017927;28;20025;-92
2023/04/06 02:53:13;;;;;;;5.45;2.20;;;;;;;;;;5012265;28;20037;-90
2023/04/06 02:55:39;;;;;;;5.53;1.90;;;;;;;;;;5011112;28;20214;-90
2023/04/06 02:58:06;;;;;;;6.10;2.08;;;;;;;;;;5014650;28;20021;-90
2023/04/06 03:00:32;;;;;;;3.85;1.40;;;;;;;;;;5012084;28;20042;-91
2023/04/06 03:02:58;;;;;;;11.05;2.08;;;;;;;;;;5017967;28;20494;-89
2023/04/06 03:05:24;;;;;;;7.00;1.90;;;;;;;;;;5015258;28;20095;-87
2023/04/06 03:07:51;;;;;;;3.28;1.73;;;;;;;;;;5019586;28;20060;-92
2023/04/06 03:10:17;;;;;;;5.40;1.88;;;;;;;;;;5016408;28;20025;-89
2023/04/06 03:12:43;;;;;;;4.53;1.42;;;;;;;;;;5011289;28;20116;-91
2023/04/06 03:15:11;;;;;;;4.50;1.77;;;;;;;;;;5014405;28;20025;-89
2023/04/06 03:17:37;;;;;;;4.15;1.42;;;;;;;;;;5012321;28;20030;-91
2023/04/06 03:20:04;;;;;;;4.88;1.60;;;;;;;;;;5010952;28;20037;-89
2023/04/06 03:22:30;;;;;;;5.10;1.58;;;;;;;;;;5009881;28;20028;-90
2023/04/06 03:24:56;;;;;;;5.05;1.60;;;;;;;;;;5029909;28;20549;-88
2023/04/06 03:27:23;;;;;;;4.78;1.10;;;;;;;;;;5009431;28;20026;-92
2023/04/06 03:29:49;;;;;;;3.45;1.08;;;;;;;;;;5013385;28;20022;-90
2023/04/06 03:32:18;;;;;;;1.88;1.05;;;;;;;;;;5013828;28;20069;-88
2023/04/06 03:34:45;;;;;;;4.40;1.10;;;;;;;;;;5013167;28;20075;-89
2023/04/06 03:37:11;;;;;;;5.82;1.02;;;;;;;;;;5015315;28;20025;-91
2023/04/06 03:39:37;;;;;;;2.88;1.00;;;;;;;;;;5017208;28;20109;-91
2023/04/06 03:42:03;;;;;;;4.28;0.90;;;;;;;;;;5013191;28;20079;-89
2023/04/06 03:44:30;;;;;;;2.92;1.38;;;;;;;;;;5012787;28;20026;-91
2023/04/06 03:46:56;;;;;;;3.50;1.00;;;;;;;;;;5010819;28;20025;-89
2023/04/06 03:49:23;;;;;;;5.25;1.75;;;;;;;;;;5012684;28;20024;-90
2023/04/06 03:51:49;;;;;;;2.40;1.02;;;;;;;;;;5010129;28;20527;-88
2023/04/06 03:54:15;;;;;;;4.68;1.50;;;;;;;;;;5011731;28;20244;-89
2023/04/06 03:56:41;;;;;;;3.95;1.50;;;;;;;;;;5016116;28;20022;-89
2023/04/06 03:59:10;;;;;;;3.22;1.65;;;;;;;;;;5009107;28;20045;-89
2023/04/06 04:01:36;;;;;;;5.50;2.20;;;;;;;;;;5007678;28;20121;-90
2023/04/06 04:04:03;;;;;;;4.35;1.52;;;;;;;;;;5007530;28;20180;-90
2023/04/06 04:06:29;;;;;;;4.35;1.70;;;;;;;;;;5010228;28;20032;-92
2023/04/06 04:08:56;;;;;;;3.42;1.30;;;;;;;;;;5008661;28;20029;-93
2023/04/06 04:11:22;;;;;;;5.65;1.58;;;;;;;;;;5013911;28;20033;-93
2023/04/06 04:13:48;;;;;;;6.10;2.03;;;;;;;;;;5007527;28;20018;-91
2023/04/06 04:16:15;;;;;;;3.05;1.30;;;;;;;;;;5011355;28;20113;-90
2023/04/06 04:18:43;;;;;;;5.35;1.33;;;;;;;;;;5010367;28;20021;-89
2023/04/06 04:21:09;;;;;;;5.25;1.38;;;;;;;;;;5028340;28;20072;-91
2023/04/06 04:23:36;;;;;;;5.20;1.23;;;;;;;;;;5028036;28;20726;-93
2023/04/06 04:26:02;;;;;;;6.97;1.50;;;;;;;;;;5005773;28;20053;-89
2023/04/06 04:28:28;;;;;;;3.33;1.50;;;;;;;;;;5029723;28;20041;-89
2023/04/06 04:30:57;;;;;;;2.10;1.17;;;;;;;;;;5008145;28;20038;-89
2023/04/06 04:33:24;;;;;;;3.17;1.02;;;;;;;;;;5010193;28;20026;-93
2023/04/06 04:35:50;;;;;;;6.00;1.63;;;;;;;;;;5006692;28;20080;-88
2023/04/06 04:38:16;;;;;;;4.53;1.15;;;;;;;;;;5010569;28;20014;-89
2023/04/06 04:40:42;;;;;;;7.65;1.63;;;;;;;;;;5009402;28;20033;-94
2023/04/06 04:43:09;;;;;;;2.78;1.10;;;;;;;;;;5008754;28;20073;-90
2023/04/06 04:45:35;;;;;;;4.78;1.92;;;;;;;;;;5010208;28;20064;-91
2023/04/06 04:48:01;;;;;;;2.60;1.20;;;;;;;;;;5008567;28;20022;-91
2023/04/06 04:50:27;;;;;;;1.58;1.00;;;;;;;;;;5010272;28;20890;-91
2023/04/06 04:52:54;;;;;;;2.67;1.20;;;;;;;;;;5011156;28;20059;-91
2023/04/06 04:55:20;;;;;;;1.88;0.98;;;;;;;;;;5008008;28;20815;-93
2023/04/06 04:57:46;;;;;;;3.75;1.13;;;;;;;;;;5011432;28;20018;-92
2023/04/06 05:00:13;;;;;;;4.65;1.50;;;;;;;;;;5008111;28;20029;-90
2023/04/06 05:02:39;;;;;;;4.18;1.13;;;;;;;;;;5010247;28;20025;-93
2023/04/06 05:05:05;;;;;;;4.20;1.10;;;;;;;;;;5010979;28;20028;-94
2023/04/06 05:07:32;;;;;;;2.08;0.95;;;;;;;;;;5008219;28;20149;-93
2023/04/06 05:09:58;;;;;;;2.33;1.00;;;;;;;;;;5029126;28;20033;-91
2023/04/06 05:12:24;;;;;;;2.45;1.30;;;;;;;;;;5009492;28;20025;-90
2023/04/06 05:14:51;;;;;;;6.60;1.33;;;;;;;;;;5009715;28;20037;-92
2023/04/06 05:17:17;;;;;;;6.72;1.77;;;;;;;;;;5028692;28;20057;-92
2023/04/06 05:19:44;;;;;;;3.50;1.25;;;;;;;;;;5006945;28;20026;-91
2023/04/06 05:22:15;;;;;;;9.13;1.67;;;;;;;;;;5006678;28;20119;-92
2023/04/06 05:24:42;;;;;;;3.17;1.42;;;;;;;;;;5006826;28;20484;-91
2023/04/06 05:27:08;;;;;;;7.60;1.70;;;;;;;;;;5006498;28;20711;-93
2023/04/06 05:29:37;;;;;;;6.32;1.52;;;;;;;;;;5007582;28;20394;-91
2023/04/06 05:32:03;;;;;;;4.35;1.52;;;;;;;;;;5006737;28;20038;-91
2023/04/06 05:34:29;;;;;;;4.05;1.45;;;;;;;;;;5029509;28;20021;-93
2023/04/06 05:36:56;;;;;;;5.45;1.63;;;;;;;;;;5006043;28;20029;-92
2023/04/06 05:39:22;;;;;;;5.95;1.75;;;;;;;;;;5011486;28;20022;-93
2023/04/06 05:41:50;;;;;;;2.20;1.10;;;;;;;;;;5009216;28;20446;-91
2023/04/06 05:44:16;;;;;;;4.57;1.40;;;;;;;;;;5009961;28;20127;-92
2023/04/06 05:46:42;;;;;;;10.52;2.05;;;;;;;;;;5011635;28;20085;-87
2023/04/06 05:49:08;;;;;;;4.47;1.20;;;;;;;;;;5011032;28;20025;-93
2023/04/06 05:51:35;;;;;;;3.72;1.20;;;;;;;;;;5013105;28;20022;-96
2023/04/06 05:54:01;;;;;;;4.45;1.90;;;;;;;;;;5013062;28;20029;-94
2023/04/06 05:56:27;;;;;;;4.20;1.00;;;;;;;;;;5031902;28;20616;-95
2023/04/06 05:58:54;;;;;;;6.00;1.17;;;;;;;;;;5013810;28;20036;-93
2023/04/06 06:01:21;;;;;;;3.55;1.48;;;;;;;;;;5014246;28;20037;-93
2023/04/06 06:03:47;;;;;;;2.70;1.00;;;;;;;;;;5011761;28;20025;-92
2023/04/06 06:06:13;;;;;;;3.63;0.90;;;;;;;;;;5008220;28;20042;-93
2023/04/06 06:08:40;;;;;;;3.13;1.30;;;;;;;;;;5034998;28;21128;-94
2023/04/06 06:11:06;;;;;;;4.90;1.38;;;;;;;;;;5002230;28;20438;-91
2023/04/06 06:13:32;;;;;;;3.13;1.17;;;;;;;;;;5006019;28;20460;-93
2023/04/06 06:15:58;;;;;;;2.92;1.50;;;;;;;;;;5009607;28;20075;-91
2023/04/06 06:18:25;;;;;;;3.42;1.30;;;;;;;;;;5009236;28;20556;-91
2023/04/06 06:20:51;;;;;;;4.85;0.95;;;;;;;;;;5010706;28;20324;-93
2023/04/06 06:23:18;;;;;;;4.97;2.05;;;;;;;;;;5006256;28;20028;-93
2023/04/06 06:25:48;;;;;;;5.53;1.77;;;;;;;;;;5008850;28;20030;-94
2023/04/06 06:28:14;;;;;;;3.95;1.55;;;;;;;;;;5006317;28;20029;-94
2023/04/06 06:30:40;;;;;;;5.45;1.83;;;;;;;;;;5007800;28;20059;-88
2023/04/06 06:33:22;;;;;;;6.03;1.40;;;;;;;;;;5012522;28;20755;-89
2023/04/06 06:35:49;;;;;;;4.72;1.83;;;;;;;;;;5016930;28;20022;-92
2023/04/06 06:38:15;;;;;;;7.60;2.53;;;;;;;;;;5013737;28;20079;-91
2023/04/06 06:40:41;;;;;;;8.68;2.17;;;;;;;;;;5017240;28;20044;-87
2023/04/06 06:43:08;;;;;;;6.47;2.15;;;;;;;;;;5012972;28;20437;-92
2023/04/06 06:45:34;;;;;;;7.22;2.58;;;;;;;;;;5034350;28;20725;-90
2023/04/06 06:48:00;;;;;;;3.90;2.40;;;;;;;;;;5014975;28;20033;-88
2023/04/06 06:50:26;;;;;;;3.17;2.25;;;;;;;;;;5016054;28;20084;-90
2023/04/06 06:52:53;;;;;;;4.63;2.25;;;;;;;;;;5015221;28;20029;-92
2023/04/06 06:55:19;;;;;;;4.95;2.40;;;;;;;;;;5017045;28;20387;-91
2023/04/06 06:57:48;;;;;;;6.40;2.42;;;;;;;;;;5017034;28;20030;-93
2023/04/06 07:00:14;;;;;;;2.80;2.20;;;;;;;;;;5014358;28;20042;-93
2023/04/06 07:02:41;;;;;;;5.03;2.38;;;;;;;;;;5016702;28;20031;-93
2023/04/06 07:05:07;;;;;;;5.32;3.08;;;;;;;;;;5014066;28;20030;-93
2023/04/06 07:07:34;;;;;;;4.50;2.45;;;;;;;;;;5018382;28;20044;-92
2023/04/06 07:10:06;;;;;;;5.40;2.33;;;;;;;;;;5015820;28;20026;-92
2023/04/06 07:12:34;;;;;;;4.07;2.83;;;;;;;;;;5016137;28;20049;-91
2023/04/06 07:15:01;;;;;;;3.20;2.38;;;;;;;;;;5013904;28;20588;-93
2023/04/06 07:17:27;;;;;;;5.20;2.70;;;;;;;;;;5010315;28;20045;-93
2023/04/06 07:19:53;;;;;;;3.55;2.40;;;;;;;;;;5015471;28;20026;-94
2023/04/06 07:22:20;;;;;;;4.28;2.28;;;;;;;;;;5013623;28;20037;-92
2023/04/06 07:24:46;;;;;;;6.47;2.50;;;;;;;;;;5008490;28;20025;-95
2023/04/06 07:27:12;;;;;;;4.32;2.67;;;;;;;;;;5013852;28;20186;-92
2023/04/06 07:29:38;;;;;;;4.85;2.45;;;;;;;;;;5010389;28;20029;-88
2023/04/06 07:32:05;;;;;;;4.50;2.40;;;;;;;;;;5008866;28;20076;-88
2023/04/06 07:34:31;;;;;;;5.30;2.45;;;;;;;;;;5031434;28;20021;-90
2023/04/06 07:36:57;;;;;;;6.15;2.83;;;;;;;;;;5013162;28;20768;-91
2023/04/06 07:39:24;;;;;;;6.50;2.50;;;;;;;;;;5007152;28;20025;-90
2023/04/06 07:41:50;;;;;;;4.13;2.50;;;;;;;;;;5008898;28;20533;-90
2023/04/06 07:44:16;;;;;;;5.32;2.72;;;;;;;;;;5013661;28;20112;-94
2023/04/06 07:46:42;;;;;;;8.40;3.17;;;;;;;;;;5015216;28;20057;-89
2023/04/06 07:49:09;;;;;;;4.32;2.50;;;;;;;;;;5008654;28;20030;-92
2023/04/06 07:51:38;;;;;;;9.60;3.92;;;;;;;;;;5010459;28;20391;-91
2023/04/06 07:54:05;;;;;;;5.45;2.97;;;;;;;;;;5012267;28;20029;-92
2023/04/06 07:56:31;;;;;;;8.80;3.08;;;;;;;;;;5012559;28;20022;-92
2023/04/06 07:58:57;;;;;;;6.85;3.10;;;;;;;;;;5006329;28;20112;-90
2023/04/06 08:01:24;;;;;;;5.18;2.72;;;;;;;;;;5009967;28;20057;-91
2023/04/06 08:03:50;;;;;;;6.15;2.70;;;;;;;;;;5015994;28;20036;-91
2023/04/06 08:06:17;;;;;;;7.00;2.83;;;;;;;;;;5012611;28;20116;-90
2023/04/06 08:08:43;;;;;;;4.63;2.70;;;;;;;;;;5011965;28;20021;-91
2023/04/06 08:11:10;;;;;;;5.00;2.78;;;;;;;;;;5030946;28;20072;-94
2023/04/06 08:13:36;;;;;;;3.58;2.63;;;;;;;;;;5012423;28;20087;-91
2023/04/06 08:16:02;;;;;;;7.35;2.75;;;;;;;;;;5012095;28;20021;-94
2023/04/06 08:18:29;;;;;;;6.32;3.47;;;;;;;;;;5015695;28;20029;-92
2023/04/06 08:20:56;;;;;;;5.20;2.90;;;;;;;;;;5013398;28;20056;-90
2023/04/06 08:23:23;;;;;;;5.13;3.30;;;;;;;;;;5012427;28;20026;-91
2023/04/06 08:25:49;;;;;;;5.55;2.80;;;;;;;;;;5011422;28;20112;-91
2023/04/06 08:28:16;;;;;;;3.70;2.63;;;;;;;;;;5011891;28;20104;-90
2023/04/06 08:30:42;;;;;;;4.90;2.92;;;;;;;;;;5013050;28;20029;-89
2023/04/06 08:33:09;;;;;;;5.90;2.88;;;;;;;;;;5006939;28;20022;-89
2023/04/06 08:35:36;;;;;;;3.90;3.10;;;;;;;;;;5011112;28;20076;-92
2023/04/06 08:38:02;;;;;;;3.85;2.38;;;;;;;;;;5009123;28;20586;-90
2023/04/06 08:40:28;;;;;;;6.47;2.60;;;;;;;;;;5012691;28;20033;-90
2023/04/06 08:42:55;;;;;;;4.72;2.50;;;;;;;;;;5007626;28;20046;-90
2023/04/06 08:45:22;;;;;;;4.55;3.25;;;;;;;;;;5008865;28;20088;-91
2023/04/06 08:47:50;;;;;;;4.88;3.00;;;;;;;;;;5011334;28;20014;-91
2023/04/06 08:50:18;;;;;;;5.25;2.65;;;;;;;;;;5011941;28;20534;-92
2023/04/06 08:52:48;;;;;;;3.80;2.65;;;;;;;;;;5009291;28;20054;-95
2023/04/06 08:55:15;;;;;;;5.10;2.88;;;;;;;;;;5011950;28;20026;-91
2023/04/06 08:57:42;;;;;;;3.40;2.20;;;;;;;;;;5013239;28;20053;-91
2023/04/06 09:00:10;;;;;;;3.60;2.50;;;;;;;;;;5008387;28;20487;-89
2023/04/06 09:02:39;;;;;;;4.07;2.20;;;;;;;;;;5011449;28;20029;-91
2023/04/06 09:05:05;;;;;;;2.95;2.42;;;;;;;;;;5009892;28;20032;-91
2023/04/06 09:07:32;;;;;;;2.47;2.10;;;;;;;;;;5010311;28;20025;-92
2023/04/06 09:09:58;;;;;;;2.60;2.17;;;;;;;;;;5011718;28;20017;-93
2023/04/06 09:12:25;;;;;;;3.83;2.40;;;;;;;;;;5014611;28;20079;-94
2023/04/06 09:14:51;;;;;;;4.13;2.42;;;;;;;;;;5019576;28;20549;-95
2023/04/06 09:17:23;;;;;;;3.65;2.70;;;;;;;;;;5013554;28;20036;-96
2023/04/06 09:19:49;;;;;;;3.63;2.07;;;;;;;;;;5018809;28;20033;-91
2023/04/06 09:22:16;;;;;;;4.10;2.70;;;;;;;;;;5010721;28;20040;-92
2023/04/06 09:24:42;;;;;;;3.88;2.33;;;;;;;;;;5013214;28;20220;-90
2023/04/06 09:27:09;;;;;;;2.80;2.20;;;;;;;;;;5013437;28;20484;-92
2023/04/06 09:29:36;;;;;;;3.00;1.98;;;;;;;;;;5011193;28;20734;-92
2023/04/06 09:32:04;;;;;;;4.90;2.78;;;;;;;;;;5011550;28;20049;-94
2023/04/06 09:34:30;;;;;;;3.15;2.60;;;;;;;;;;5016478;28;20149;-93
2023/04/06 09:36:57;;;;;;;3.47;2.20;;;;;;;;;;5013887;28;20446;-95
2023/04/06 09:39:23;;;;;;;4.07;2.50;;;;;;;;;;5011502;28;20124;-95
2023/04/06 09:41:51;;;;;;;5.45;3.20;;;;;;;;;;5012123;28;20082;-95
2023/04/06 09:44:17;;;;;;;3.15;2.15;;;;;;;;;;5013760;28;20083;-95
2023/04/06 09:46:45;;;;;;;2.95;2.33;;;;;;;;;;5013251;28;20624;-93
2023/04/06 09:49:12;;;;;;;6.93;2.45;;;;;;;;;;5012625;28;20024;-96
2023/04/06 09:51:39;;;;;;;4.60;2.60;;;;;;;;;;5010876;28;20547;-93
2023/04/06 09:54:07;;;;;;;4.05;2.83;;;;;;;;;;5014314;28;20083;-96
2023/04/06 09:56:52;;;;;;;2.67;2.17;;;;;;;;;;5016198;28;20030;-96
2023/04/06 09:59:25;;;;;;;4.45;2.33;;;;;;;;;;5019197;28;20148;-96
2023/04/06 10:01:56;;;;;;;4.72;2.38;;;;;;;;;;5018165;28;20044;-96
2023/04/06 10:04:38;;;;;;;4.03;2.20;;;;;;;;;;5028872;28;20434;-96
2023/04/06 10:07:05;;;;;;;3.85;2.60;;;;;;;;;;5020534;28;20036;-95
2023/04/06 10:09:37;;;;;;;3.45;2.35;;;;;;;;;;5075374;23;20041;-90
2023/04/06 10:12:06;;;;;;;6.97;3.30;;;;;;;;;;5037159;28;20025;-91
2023/04/06 10:14:37;;;;;;;4.90;2.75;;;;;;;;;;5036817;28;20033;-92
2023/04/06 10:17:19;;;;;;;9.88;3.00;;;;;;;;;;5032423;28;20026;-90
2023/04/06 10:19:50;;;;;;;4.05;2.20;;;;;;;;;;5029042;28;21096;-90
2023/04/06 10:22:29;;;;;;;5.03;2.50;;;;;;;;;;5033292;28;20026;-90
2023/04/06 10:24:58;;;;;;;4.28;2.40;;;;;;;;;;5031616;28;20029;-93
2023/04/06 10:27:29;;;;;;;5.65;2.90;;;;;;;;;;5055598;28;20051;-92
2023/04/06 10:30:07;;;;;;;3.95;2.25;;;;;;;;;;5042250;28;20053;-91
2023/04/06 10:32:37;;;;;;;2.90;2.30;;;;;;;;;;5035354;28;20026;-93
2023/04/06 10:35:10;;;;;;;5.25;2.08;;;;;;;;;;5037019;28;20057;-92
2023/04/06 10:40:38;;;;;;;123.60;11.23;;;;;;;;;;5033691;28;20033;-92
2023/04/06 10:43:08;;;;;;;27.75;5.35;;;;;;;;;;5035563;28;20018;-94
2023/04/06 10:45:40;;;;;;;7.10;2.88;;;;;;;;;;5035121;28;20387;-92
2023/04/06 10:48:15;;;;;;;7.95;3.17;;;;;;;;;;5036710;28;20086;-92
2023/04/06 10:50:47;;;;;;;8.68;2.50;;;;;;;;;;5025953;28;20026;-92
2023/04/06 10:53:27;;;;;;;5.47;2.78;;;;;;;;;;5032351;28;20490;-92
2023/04/06 10:55:57;;;;;;;4.20;2.25;;;;;;;;;;5036850;28;20032;-93
2023/04/06 10:58:27;;;;;;;5.78;2.25;;;;;;;;;;5044012;28;20029;-93
2023/04/06 11:00:57;;;;;;;2.88;2.03;;;;;;;;;;5049022;28;20092;-93
2023/04/06 11:03:41;;;;;;;3.33;2.03;;;;;;;;;;5028230;28;20064;-92
2023/04/06 11:06:07;;;;;;;8.43;2.17;;;;;;;;;;5031607;28;20470;-92
2023/04/06 11:08:36;;;;;;;4.07;2.20;;;;;;;;;;5033692;28;20489;-92
2023/04/06 11:11:18;;;;;;;3.88;2.33;;;;;;;;;;5022487;28;20113;-93
2023/04/06 11:13:47;;;;;;;4.40;2.40;;;;;;;;;;5042130;28;20059;-93
2023/04/06 11:16:17;;;;;;;5.63;2.42;;;;;;;;;;5021395;28;20033;-92
2023/04/06 11:18:57;;;;;;;4.72;1.83;;;;;;;;;;5027278;28;20026;-92
2023/04/06 11:21:36;;;;;;;3.22;2.40;;;;;;;;;;5031426;28;20068;-92
2023/04/06 11:24:22;;;;;;;2.95;1.83;;;;;;;;;;5026364;28;20480;-93
2023/04/06 11:26:57;;;;;;;2.90;2.10;;;;;;;;;;5019419;28;20075;-93
2023/04/06 11:29:31;;;;;;;3.08;2.13;;;;;;;;;;5035810;28;20525;-92
2023/04/06 11:32:18;;;;;;;3.75;2.17;;;;;;;;;;5026727;28;20113;-93
2023/04/06 11:34:48;;;;;;;3.22;2.08;;;;;;;;;;5035810;28;20171;-92
2023/04/06 11:37:16;;;;;;;3.10;1.98;;;;;;;;;;5035645;28;20053;-93
2023/04/06 11:39:56;;;;;;;3.28;2.13;;;;;;;;;;5020301;28;20088;-94
2023/04/06 11:42:29;;;;;;;3.03;1.98;;;;;;;;;;5015989;28;20026;-93
2023/04/06 11:44:58;;;;;;;4.63;2.25;;;;;;;;;;5033682;28;20120;-95
2023/04/06 11:47:40;;;;;;;3.22;2.33;;;;;;;;;;5055120;28;20028;-93
2023/04/06 11:50:13;;;;;;;5.88;2.20;;;;;;;;;;5037197;28;20084;-92
2023/04/06 11:52:40;;;;;;;3.10;2.00;;;;;;;;;;5019346;28;20037;-92
2023/04/06 11:55:16;;;;;;;2.90;2.05;;;;;;;;;;5035354;28;20025;-93
2023/04/06 11:57:50;;;;;;;3.25;2.10;;;;;;;;;;5036465;28;20029;-93
2023/04/06 12:00:47;;;;;;;5.57;2.40;;;;;;;;;;5053477;28;20497;-93
2023/04/06 12:03:36;;;;;;;4.60;2.28;;;;;;;;;;5035274;28;20537;-92
2023/04/06 12:06:19;;;;;;;5.18;2.65;;;;;;;;;;5042970;28;20040;-92
2023/04/06 12:08:48;;;;;;;11.57;3.00;;;;;;;;;;5043799;28;20391;-92
2023/04/06 12:11:19;;;;;;;3.35;2.20;;;;;;;;;;5035336;28;20036;-92
2023/04/06 12:13:49;;;;;;;4.20;2.03;;;;;;;;;;5035071;28;20478;-93
2023/04/06 12:16:19;;;;;;;4.75;2.65;;;;;;;;;;5020187;28;20156;-93
2023/04/06 12:18:49;;;;;;;4.38;2.65;;;;;;;;;;5035373;28;20033;-94
2023/04/06 12:21:18;;;;;;;3.70;2.25;;;;;;;;;;5018555;28;20034;-93
2023/04/06 12:24:07;;;;;;;4.95;2.50;;;;;;;;;;5034938;28;20459;-94
2023/04/06 12:26:46;;;;;;;3.97;2.55;;;;;;;;;;5034910;28;20105;-93
2023/04/06 12:29:35;;;;;;;4.35;2.38;;;;;;;;;;5035436;28;20021;-94
2023/04/06 12:32:09;;;;;;;3.53;2.20;;;;;;;;;;5025817;28;20044;-94
2023/04/06 12:34:39;;;;;;;9.48;2.40;;;;;;;;;;5034860;28;20033;-94
2023/04/06 12:37:08;;;;;;;5.90;2.97;;;;;;;;;;5035047;28;20021;-94
2023/04/06 12:39:37;;;;;;;4.28;2.13;;;;;;;;;;5034764;28;20022;-93
2023/04/06 12:42:16;;;;;;;6.45;2.47;;;;;;;;;;5035002;28;20033;-94
2023/04/06 12:44:46;;;;;;;6.22;2.45;;;;;;;;;;5038563;28;20029;-93
2023/04/06 12:47:37;;;;;;;7.00;2.50;;;;;;;;;;5054050;28;20074;-93
2023/04/06 12:50:19;;;;;;;3.00;2.05;;;;;;;;;;5023449;28;20084;-93
2023/04/06 12:52:46;;;;;;;3.28;2.28;;;;;;;;;;5034656;28;20037;-94
2023/04/06 12:55:37;;;;;;;5.93;3.30;;;;;;;;;;5015183;28;20029;-93
2023/04/06 12:58:18;;;;;;;6.93;2.88;;;;;;;;;;5026423;28;20034;-92
2023/04/06 13:01:17;;;;;;;5.32;2.88;;;;;;;;;;5034287;28;20055;-93
2023/04/06 13:03:59;;;;;;;5.35;2.53;;;;;;;;;;5035534;28;20046;-93
2023/04/06 13:06:28;;;;;;;5.13;2.80;;;;;;;;;;5033857;28;20021;-93
2023/04/06 13:09:22;;;;;;;;;;;;;;;;;;;;;
2023/04/06 13:11:48;;;;;;;5.32;2.42;;;;;;;;;;5009977;28;20042;-94
2023/04/06 13:14:17;;;;;;;4.28;2.42;;;;;;;;;;5013607;28;20040;-93
2023/04/06 13:17:01;;;;;;;;;;;;;;;;;;;;;
2023/04/06 13:19:31;;;;;;;5.22;2.50;;;;;;;;;;5013290;28;20414;-94
2023/04/06 13:21:57;;;;;;;4.72;2.83;;;;;;;;;;5013833;28;20034;-94
2023/04/06 13:24:26;;;;;;;5.65;2.70;;;;;;;;;;5013474;28;20030;-93
2023/04/06 13:26:57;;;;;;;5.28;2.40;;;;;;;;;;5029911;28;20037;-94
2023/04/06 13:29:40;;;;;;;4.13;2.35;;;;;;;;;;5037448;28;20078;-94
2023/04/06 13:32:10;;;;;;;3.30;2.35;;;;;;;;;;5037412;28;20059;-93
2023/04/06 13:34:40;;;;;;;5.28;2.40;;;;;;;;;;5037415;28;20120;-93
2023/04/06 13:37:09;;;;;;;5.50;2.70;;;;;;;;;;5037299;28;20437;-95
2023/04/06 13:39:38;;;;;;;5.88;2.65;;;;;;;;;;5039091;28;20395;-94
2023/04/06 13:45:09;;;;;;;4.68;2.38;;;;;;;;;;5024681;28;20120;-94
2023/04/06 13:47:38;;;;;;;5.57;2.47;;;;;;;;;;5039521;28;20029;-94
2023/04/06 13:50:19;;;;;;;7.15;4.07;;;;;;;;;;5043613;28;20016;-95
2023/04/06 13:52:49;;;;;;;6.82;2.63;;;;;;;;;;5057255;28;20034;-94
2023/04/06 13:55:18;;;;;;;4.22;2.40;;;;;;;;;;5057249;28;20050;-93
2023/04/06 13:57:59;;;;;;;5.20;3.45;;;;;;;;;;5056731;28;20025;-94
2023/04/06 14:00:27;;;;;;;5.32;2.15;;;;;;;;;;5052218;28;20470;-93
2023/04/06 14:02:58;;;;;;;4.38;2.55;;;;;;;;;;5057198;28;20061;-93
2023/04/06 14:05:27;;;;;;;3.15;2.20;;;;;;;;;;5057188;28;20052;-93
2023/04/06 14:08:07;;;;;;;16.33;2.95;;;;;;;;;;5056507;28;20091;-93
2023/04/06 14:10:37;;;;;;;5.25;2.25;;;;;;;;;;5056965;28;20029;-93
2023/04/06 14:13:18;;;;;;;9.77;2.42;;;;;;;;;;5057432;28;20045;-95
2023/04/06 14:15:47;;;;;;;2.35;1.80;;;;;;;;;;5057668;28;20043;-94
2023/04/06 14:18:28;;;;;;;5.30;2.17;;;;;;;;;;5056700;28;20090;-93
2023/04/06 14:20:58;;;;;;;3.75;2.10;;;;;;;;;;5056609;28;20462;-93
2023/04/06 14:23:28;;;;;;;4.30;1.95;;;;;;;;;;5056772;28;20017;-93
2023/04/06 14:26:27;;;;;;;3.65;2.05;;;;;;;;;;5056529;28;20048;-93
2023/04/06 14:29:06;;;;;;;2.95;2.10;;;;;;;;;;5049006;28;20033;-93
2023/04/06 14:31:41;;;;;;;4.75;2.42;;;;;;;;;;5056937;28;20025;-94
2023/04/06 14:34:07;;;;;;;3.35;1.65;;;;;;;;;;5056475;28;20025;-95
2023/04/06 14:36:37;;;;;;;7.20;2.00;;;;;;;;;;5056408;28;20024;-93
2023/04/06 14:39:07;;;;;;;2.65;1.65;;;;;;;;;;5057276;28;20028;-95
2023/04/06 14:44:27;;;;;;;2.42;1.70;;;;;;;;;;5061861;28;20029;-95
2023/04/06 14:47:08;;;;;;;3.50;1.83;;;;;;;;;;5057769;28;20028;-95
2023/04/06 14:49:37;;;;;;;6.32;2.45;;;;;;;;;;5058418;28;20448;-95
2023/04/06 14:53:13;;;;;;;;;;;;;;;;;;;;;
2023/04/06 14:55:51;;;;;;;;;;;;;;;;;;;;;
2023/04/06 14:58:18;;;;;;;4.93;1.98;;;;;;;;;;4998724;28;20031;-95
2023/04/06 15:00:48;;;;;;;3.35;2.15;;;;;;;;;;5049091;28;20036;-95
2023/04/06 15:03:16;;;;;;;6.35;2.28;;;;;;;;;;5061113;28;20055;-95
2023/04/06 15:06:00;;;;;;;5.13;2.28;;;;;;;;;;5062993;28;20115;-94
2023/04/06 15:08:27;;;;;;;6.30;2.80;;;;;;;;;;5058468;28;20028;-94